createdAt,value
2022-08-05T00:01:27.861Z,97672.13
2022-08-05T00:03:57.056Z,97673.78
2022-08-05T00:06:32.129Z,97662.03
2022-08-05T00:09:00.883Z,97665.38
2022-08-05T00:11:30.520Z,97664.81
2022-08-05T00:14:12.976Z,97654.47
2022-08-05T00:16:52.793Z,97665.00
2022-08-05T00:19:24.941Z,97644.88
2022-08-05T00:21:59.635Z,97645.13
2022-08-05T00:24:30.705Z,97659.47
2022-08-05T00:27:01.719Z,97673.84
2022-08-05T00:29:37.729Z,97658.91
2022-08-05T00:32:12.445Z,97663.00
2022-08-05T00:35:04.018Z,97643.88
2022-08-05T00:37:35.321Z,97663.81
2022-08-05T00:40:17.973Z,97675.41
2022-08-05T00:42:54.918Z,97654.88
2022-08-05T00:45:24.968Z,97664.16
2022-08-05T00:48:05.202Z,97650.97
2022-08-05T00:50:32.745Z,97639.91
2022-08-05T00:52:59.568Z,97656.63
2022-08-05T00:55:42.506Z,97670.34
2022-08-05T00:58:13.990Z,97664.34
2022-08-05T01:00:42.258Z,97660.75
2022-08-05T01:03:10.644Z,97648.66
2022-08-05T01:05:54.660Z,97642.91
2022-08-05T01:08:40.148Z,97661.97
2022-08-05T01:11:33.231Z,97661.47
2022-08-05T01:14:08.989Z,97647.28
2022-08-05T01:16:48.681Z,97671.16
2022-08-05T01:19:56.078Z,97675.47
2022-08-05T01:22:30.589Z,97687.25
2022-08-05T01:25:39.891Z,97687.22
2022-08-05T01:28:21.085Z,97688.03
2022-08-05T01:31:03.011Z,97688.56
2022-08-05T01:33:36.268Z,97695.22
2022-08-05T01:36:13.146Z,97689.66
2022-08-05T01:38:52.322Z,97677.81
2022-08-05T01:41:25.807Z,97694.03
2022-08-05T01:43:53.738Z,97689.91
2022-08-05T01:46:42.933Z,97697.72
2022-08-05T01:49:24.241Z,97690.63
2022-08-05T01:51:59.158Z,97693.25
2022-08-05T01:54:32.540Z,97701.75
2022-08-05T01:58:11.777Z,97693.56
2022-08-05T01:59:49.475Z,97703.63
2022-08-05T02:02:20.304Z,97716.38
2022-08-05T02:04:58.476Z,97703.19
2022-08-05T02:07:25.594Z,97693.06
2022-08-05T02:09:57.643Z,97710.38
2022-08-05T02:12:33.159Z,97722.22
2022-08-05T02:15:12.446Z,97703.28
2022-08-05T02:18:28.451Z,97715.78
2022-08-05T02:20:44.172Z,97707.94
2022-08-05T02:23:14.963Z,97708.25
2022-08-05T02:25:50.286Z,97703.81
2022-08-05T02:28:29.058Z,97696.91
2022-08-05T02:31:00.953Z,97715.88
2022-08-05T02:33:36.028Z,97713.03
2022-08-05T02:36:09.670Z,97724.28
2022-08-05T02:38:44.059Z,97702.44
2022-08-05T02:41:22.751Z,97707.13
2022-08-05T02:44:02.679Z,97696.69
2022-08-05T02:46:53.849Z,97709.25
2022-08-05T02:49:36.624Z,97725.03
2022-08-05T02:52:07.876Z,97734.09
2022-08-05T02:54:41.283Z,97744.38
2022-08-05T02:58:10.787Z,97751.81
2022-08-05T03:00:01.342Z,97732.84
2022-08-05T03:02:37.011Z,97727.72
2022-08-05T03:05:05.111Z,97729.69
2022-08-05T03:07:59.413Z,97738.16
2022-08-05T03:10:21.950Z,97736.84
2022-08-05T03:12:55.343Z,97718.81
2022-08-05T03:15:24.281Z,97727.94
2022-08-05T03:17:57.538Z,97751.31
2022-08-05T03:20:24.968Z,97730.47
2022-08-05T03:22:57.630Z,97743.22
2022-08-05T03:25:34.054Z,97704.34
2022-08-05T03:28:18.849Z,97738.16
2022-08-05T03:30:48.380Z,97742.19
2022-08-05T03:33:16.679Z,97737.34
2022-08-05T03:35:46.507Z,97749.78
2022-08-05T03:38:14.517Z,97730.16
2022-08-05T03:40:48.569Z,97740.88
2022-08-05T03:44:08.167Z,97729.25
2022-08-05T03:46:04.910Z,97733.59
2022-08-05T03:48:35.293Z,97734.09
2022-08-05T03:52:35.218Z,97739.97
2022-08-05T03:55:49.904Z,97732.63
2022-08-05T03:57:41.755Z,97730.97
2022-08-05T04:00:15.507Z,97721.81
2022-08-05T04:02:58.035Z,97726.22
2022-08-05T04:05:34.902Z,97739.81
2022-08-05T04:08:30.119Z,97749.94
2022-08-05T04:10:58.129Z,97730.97
2022-08-05T04:13:50.036Z,97726.06
2022-08-05T04:16:15.760Z,97740.44
2022-08-05T04:18:54.313Z,97741.03
2022-08-05T04:22:10.006Z,97738.16
2022-08-05T04:24:09.088Z,97750.59
2022-08-05T04:26:41.599Z,97750.50
2022-08-05T04:29:08.374Z,97757.84
2022-08-05T04:31:38.792Z,97764.41
2022-08-05T04:34:33.117Z,97760.72
2022-08-05T04:36:52.991Z,97752.63
2022-08-05T04:39:20.254Z,97768.75
2022-08-05T04:41:48.459Z,97770.84
2022-08-05T04:44:16.150Z,97774.84
2022-08-05T04:46:48.584Z,97777.38
2022-08-05T04:49:15.497Z,97777.72
2022-08-05T04:51:45.233Z,97787.28
2022-08-05T04:54:16.696Z,97770.78
2022-08-05T04:56:48.820Z,97788.50
2022-08-05T04:59:21.824Z,97765.75
2022-08-05T05:02:07.011Z,97784.47
2022-08-05T05:04:35.794Z,97791.44
2022-08-05T05:07:09.500Z,97786.06
2022-08-05T05:09:37.232Z,97758.09
2022-08-05T05:12:09.226Z,97781.25
2022-08-05T05:14:49.369Z,97787.81
2022-08-05T05:17:22.719Z,97801.06
2022-08-05T05:20:16.572Z,97807.06
2022-08-05T05:22:48.595Z,97778.50
2022-08-05T05:25:17.444Z,97812.66
2022-08-05T05:27:53.728Z,97811.16
2022-08-05T05:30:31.358Z,97824.41
2022-08-05T05:33:06.050Z,97828.28
2022-08-05T05:35:43.612Z,97816.06
2022-08-05T05:38:12.952Z,97819.38
2022-08-05T05:40:49.942Z,97827.47
2022-08-05T05:43:22.406Z,97825.50
2022-08-05T05:46:10.695Z,97822.38
2022-08-05T05:48:43.971Z,97818.25
2022-08-05T05:51:15.489Z,97818.31
2022-08-05T05:53:45.908Z,97831.84
2022-08-05T05:56:26.013Z,97835.66
2022-08-05T05:59:03.096Z,97847.97
2022-08-05T06:01:37.477Z,97852.81
2022-08-05T06:04:07.140Z,97844.09
2022-08-05T06:06:35.094Z,97857.88
2022-08-05T06:09:04.210Z,97859.22
2022-08-05T06:11:32.042Z,97874.84
2022-08-05T06:14:00.476Z,97879.72
2022-08-05T06:16:36.960Z,97872.72
2022-08-05T06:19:05.841Z,97877.66
2022-08-05T06:21:37.054Z,97889.59
2022-08-05T06:24:12.071Z,97883.91
2022-08-05T06:26:51.201Z,97889.09
2022-08-05T06:29:46.697Z,97878.88
2022-08-05T06:32:20.961Z,97886.53
2022-08-05T06:34:53.606Z,97887.38
2022-08-05T06:37:55.842Z,97892.88
2022-08-05T06:40:10.590Z,97891.53
2022-08-05T06:42:39.873Z,97898.59
2022-08-05T06:45:08.500Z,97899.94
2022-08-05T06:48:44.247Z,97899.44
2022-08-05T06:50:22.601Z,97901.63
2022-08-05T06:53:04.056Z,97905.22
2022-08-05T06:55:42.049Z,97912.63
2022-08-05T06:58:19.905Z,97910.78
2022-08-05T07:00:50.201Z,97897.78
2022-08-05T07:03:16.963Z,97917.88
2022-08-05T07:05:44.133Z,97908.34
2022-08-05T07:08:13.266Z,97915.13
2022-08-05T07:10:52.779Z,97915.66
2022-08-05T07:13:57.550Z,97917.81
2022-08-05T07:17:59.113Z,97911.88
2022-08-05T07:20:16.651Z,97931.97
2022-08-05T07:22:27.801Z,97915.38
2022-08-05T07:25:09.441Z,97920.81
2022-08-05T07:27:56.346Z,97923.53
2022-08-05T07:30:32.133Z,97904.69
2022-08-05T07:33:00.068Z,97924.97
2022-08-05T07:36:02.191Z,97924.34
2022-08-05T07:38:32.739Z,97921.53
2022-08-05T07:41:16.615Z,97939.06
2022-08-05T07:43:48.562Z,97938.56
2022-08-05T07:46:20.745Z,97918.16
2022-08-05T07:49:02.529Z,97947.00
2022-08-05T07:51:37.230Z,97945.53
2022-08-05T07:54:05.560Z,97937.97
2022-08-05T07:57:00.286Z,97932.41
2022-08-05T07:59:22.041Z,97950.84
2022-08-05T08:01:52.235Z,97949.53
2022-08-05T08:04:37.955Z,97957.72
2022-08-05T08:07:07.184Z,97967.72
2022-08-05T08:09:34.847Z,97961.31
2022-08-05T08:12:10.719Z,97960.94
2022-08-05T08:14:46.788Z,97970.41
2022-08-05T08:17:15.779Z,97975.84
2022-08-05T08:20:22.214Z,97982.31
2022-08-05T08:22:30.954Z,97971.31
2022-08-05T08:25:03.348Z,97963.66
2022-08-05T08:27:40.165Z,97983.72
2022-08-05T08:30:30.092Z,97979.50
2022-08-05T08:33:11.117Z,97980.63
2022-08-05T08:35:41.072Z,97980.19
2022-08-05T08:38:11.748Z,97971.41
2022-08-05T08:40:46.740Z,97980.16
2022-08-05T08:45:16.570Z,97995.50
2022-08-05T08:46:10.013Z,97977.50
2022-08-05T08:49:08.062Z,97988.53
2022-08-05T08:52:04.052Z,97994.97
2022-08-05T08:54:21.075Z,97983.19
2022-08-05T08:56:54.362Z,97974.03
2022-08-05T08:59:27.599Z,97989.66
2022-08-05T09:02:01.440Z,97998.31
2022-08-05T09:04:30.387Z,97988.69
2022-08-05T09:06:58.349Z,97998.38
2022-08-05T09:09:32.482Z,97992.03
2022-08-05T09:12:19.938Z,98004.38
2022-08-05T09:14:58.978Z,97983.16
2022-08-05T09:17:40.748Z,98001.72
2022-08-05T09:20:11.522Z,97985.25
2022-08-05T09:23:19.542Z,98001.72
2022-08-05T09:26:01.996Z,98010.75
2022-08-05T09:28:38.217Z,97994.63
2022-08-05T09:31:23.354Z,98006.59
2022-08-05T09:34:06.393Z,98012.00
2022-08-05T09:36:54.905Z,98009.50
2022-08-05T09:39:27.677Z,98017.91
2022-08-05T09:42:08.600Z,97998.44
2022-08-05T09:44:50.816Z,98006.28
2022-08-05T09:47:23.635Z,97999.03
2022-08-05T09:50:01.190Z,98010.38
2022-08-05T09:52:35.075Z,98012.94
2022-08-05T09:55:56.108Z,97999.38
2022-08-05T09:57:59.928Z,97990.03
2022-08-05T10:00:27.812Z,98016.09
2022-08-05T10:02:58.251Z,98010.75
2022-08-05T10:05:28.516Z,98019.66
2022-08-05T10:08:35.081Z,98011.38
2022-08-05T10:10:53.924Z,98006.56
2022-08-05T10:13:47.262Z,98014.38
2022-08-05T10:16:37.954Z,98017.13
2022-08-05T10:19:11.749Z,98021.31
2022-08-05T10:21:40.878Z,98010.22
2022-08-05T10:24:13.359Z,98021.47
2022-08-05T10:26:48.948Z,98034.75
2022-08-05T10:29:24.199Z,98035.06
2022-08-05T10:32:53.761Z,98020.72
2022-08-05T10:34:55.774Z,98031.13
2022-08-05T10:37:40.311Z,98029.88
2022-08-05T10:40:27.844Z,98034.63
2022-08-05T10:43:01.483Z,98023.38
2022-08-05T10:45:40.245Z,98039.50
2022-08-05T10:48:57.275Z,98038.44
2022-08-05T10:51:28.879Z,98031.69
2022-08-05T10:54:01.755Z,98036.34
2022-08-05T10:56:45.258Z,98038.22
2022-08-05T11:00:03.392Z,98033.34
2022-08-05T11:02:14.562Z,98033.00
2022-08-05T11:04:59.539Z,98015.41
2022-08-05T11:07:33.065Z,98025.31
2022-08-05T11:10:23.148Z,98028.88
2022-08-05T11:12:57.769Z,98037.16
2022-08-05T11:16:00.068Z,98037.00
2022-08-05T11:18:32.672Z,98025.81
2022-08-05T11:21:02.916Z,98036.69
2022-08-05T11:24:05.717Z,98038.41
2022-08-05T11:26:40.549Z,98035.34
2022-08-05T11:29:41.016Z,98030.94
2022-08-05T11:32:30.107Z,98026.34
2022-08-05T11:34:57.631Z,98034.06
2022-08-05T11:38:37.087Z,98034.66
2022-08-05T11:41:35.408Z,98032.09
2022-08-05T11:44:07.020Z,98028.28
2022-08-05T11:47:13.960Z,98023.97
2022-08-05T11:49:49.694Z,98018.81
2022-08-05T11:52:29.653Z,98034.53
2022-08-05T11:54:58.681Z,98023.38
2022-08-05T11:57:30.190Z,98032.03
2022-08-05T11:59:58.295Z,98031.59
2022-08-05T12:02:36.055Z,98022.63
2022-08-05T12:05:08.164Z,98033.03
2022-08-05T12:08:08.838Z,98028.84
2022-08-05T12:10:42.840Z,98005.16
2022-08-05T12:13:15.848Z,98024.50
2022-08-05T12:15:50.022Z,98019.50
2022-08-05T12:18:32.990Z,98024.25
2022-08-05T12:21:10.984Z,98022.69
2022-08-05T12:23:43.124Z,98012.59
2022-08-05T12:26:10.091Z,98018.75
2022-08-05T12:28:37.916Z,98014.44
2022-08-05T12:31:05.734Z,98023.13
2022-08-05T12:33:36.313Z,98015.81
2022-08-05T12:36:08.824Z,98012.00
2022-08-05T12:38:41.125Z,98011.44
2022-08-05T12:41:16.126Z,98012.72
2022-08-05T12:44:01.362Z,98021.81
2022-08-05T12:46:31.151Z,98012.28
2022-08-05T12:48:59.035Z,98015.22
2022-08-05T12:52:13.943Z,98022.00
2022-08-05T12:54:23.348Z,98018.47
2022-08-05T12:57:09.401Z,98016.50
2022-08-05T13:01:56.895Z,98016.47
2022-08-05T13:02:40.215Z,98002.91
2022-08-05T13:05:12.749Z,98013.13
2022-08-05T13:08:00.601Z,98009.50
2022-08-05T13:10:31.185Z,98006.16
2022-08-05T13:12:58.481Z,97990.41
2022-08-05T13:15:42.146Z,98008.19
2022-08-05T13:18:20.738Z,98014.41
2022-08-05T13:20:50.134Z,98005.44
2022-08-05T13:23:18.108Z,97997.38
2022-08-05T13:25:52.301Z,97993.47
2022-08-05T13:28:32.343Z,97994.41
2022-08-05T13:30:59.481Z,97990.06
2022-08-05T13:34:22.896Z,97983.53
2022-08-05T13:36:16.827Z,97997.53
2022-08-05T13:38:43.463Z,97984.06
2022-08-05T13:41:11.611Z,97991.34
2022-08-05T13:43:45.305Z,97978.50
2022-08-05T13:46:50.953Z,97978.13
2022-08-05T13:49:11.742Z,97977.75
2022-08-05T13:51:40.921Z,97989.25
2022-08-05T13:54:13.234Z,97993.59
2022-08-05T13:56:45.173Z,97992.44
2022-08-05T13:59:21.122Z,97997.47
2022-08-05T14:01:58.585Z,97994.34
2022-08-05T14:04:50.069Z,97981.06
2022-08-05T14:07:25.411Z,97990.59
2022-08-05T14:10:28.485Z,97984.44
2022-08-05T14:12:57.714Z,98007.13
2022-08-05T14:16:08.019Z,98002.88
2022-08-05T14:18:17.350Z,98009.44
2022-08-05T14:20:48.030Z,98013.56
2022-08-05T14:23:23.991Z,98008.31
2022-08-05T14:25:58.979Z,98014.38
2022-08-05T14:28:29.569Z,98005.72
2022-08-05T14:31:00.877Z,98013.28
2022-08-05T14:33:57.091Z,97998.38
2022-08-05T14:36:15.724Z,97989.94
2022-08-05T14:38:47.470Z,98000.81
2022-08-05T14:41:14.950Z,97996.16
2022-08-05T14:44:02.393Z,97990.38
2022-08-05T14:46:32.642Z,98008.22
2022-08-05T14:49:06.483Z,97992.53
2022-08-05T14:51:35.309Z,97990.44
2022-08-05T14:54:27.945Z,97985.78
2022-08-05T14:56:48.566Z,97979.66
2022-08-05T14:59:15.721Z,97992.53
2022-08-05T15:01:48.055Z,97992.00
2022-08-05T15:04:17.332Z,97990.72
2022-08-05T15:06:49.361Z,97998.38
2022-08-05T15:09:52.624Z,97989.59
2022-08-05T15:12:09.007Z,97996.09
2022-08-05T15:14:48.348Z,97997.44
2022-08-05T15:17:47.096Z,97990.69
2022-08-05T15:20:04.308Z,97999.75
2022-08-05T15:22:30.871Z,98007.00
2022-08-05T15:24:59.188Z,98015.97
2022-08-05T15:27:32.145Z,98004.16
2022-08-05T15:30:03.674Z,98025.81
2022-08-05T15:32:30.280Z,98015.09
2022-08-05T15:34:58.341Z,98014.09
2022-08-05T15:38:33.252Z,98004.50
2022-08-05T15:40:59.097Z,98006.81
2022-08-05T15:43:09.228Z,98013.22
2022-08-05T15:45:45.964Z,98012.00
2022-08-05T15:48:13.901Z,98012.16
2022-08-05T15:50:43.615Z,98017.34
2022-08-05T15:53:12.466Z,98022.09
2022-08-05T15:56:03.808Z,98033.03
2022-08-05T15:58:29.717Z,98033.31
2022-08-05T16:01:04.412Z,98036.88
2022-08-05T16:03:43.041Z,98034.66
2022-08-05T16:06:11.302Z,98045.50
2022-08-05T16:08:38.298Z,98051.44
2022-08-05T16:11:05.093Z,98044.66
2022-08-05T16:13:34.247Z,98051.69
2022-08-05T16:16:03.294Z,98057.56
2022-08-05T16:18:32.830Z,98066.25
2022-08-05T16:21:04.544Z,98040.63
2022-08-05T16:23:53.082Z,98052.25
2022-08-05T16:26:18.956Z,98051.22
2022-08-05T16:28:53.129Z,98065.06
2022-08-05T16:31:21.359Z,98073.78
2022-08-05T16:33:48.213Z,98064.78
2022-08-05T16:36:14.829Z,98051.59
2022-08-05T16:38:54.442Z,98077.47
2022-08-05T16:42:14.700Z,98075.91
2022-08-05T16:44:11.967Z,98079.66
2022-08-05T16:46:41.038Z,98085.00
2022-08-05T16:49:09.232Z,98087.28
2022-08-05T16:51:42.337Z,98088.88
2022-08-05T16:54:24.849Z,98094.53
2022-08-05T16:56:54.183Z,98097.81
2022-08-05T16:59:20.785Z,98089.59
2022-08-05T17:01:53.564Z,98100.69
2022-08-05T17:04:21.953Z,98096.41
2022-08-05T17:06:53.010Z,98102.91
2022-08-05T17:09:20.550Z,98090.19
2022-08-05T17:11:48.829Z,98093.81
2022-08-05T17:14:22.350Z,98077.78
2022-08-05T17:17:04.138Z,98114.75
2022-08-05T17:19:31.307Z,98115.66
2022-08-05T17:21:58.566Z,98119.47
2022-08-05T17:24:38.643Z,98107.31
2022-08-05T17:27:09.316Z,98112.75
2022-08-05T17:29:41.290Z,98129.69
2022-08-05T17:32:17.131Z,98123.41
2022-08-05T17:34:47.795Z,98121.84
2022-08-05T17:37:39.716Z,98116.19
2022-08-05T17:40:10.890Z,98114.59
2022-08-05T17:42:42.912Z,98125.47
2022-08-05T17:45:20.270Z,98131.72
2022-08-05T17:47:52.993Z,98132.81
2022-08-05T17:50:28.771Z,98136.63
2022-08-05T17:52:59.266Z,98140.41
2022-08-05T17:55:37.218Z,98135.84
2022-08-05T17:58:06.870Z,98128.81
2022-08-05T18:00:34.610Z,98138.94
2022-08-05T18:03:02.125Z,98129.19
2022-08-05T18:05:28.927Z,98141.69
2022-08-05T18:08:02.280Z,98133.88
2022-08-05T18:10:33.419Z,98127.91
2022-08-05T18:13:00.632Z,98136.06
2022-08-05T18:15:31.072Z,98150.50
2022-08-05T18:18:05.766Z,98133.63
2022-08-05T18:20:37.785Z,98151.06
2022-08-05T18:23:09.320Z,98156.22
2022-08-05T18:25:44.742Z,98148.09
2022-08-05T18:28:17.890Z,98156.25
2022-08-05T18:30:51.158Z,98155.72
2022-08-05T18:33:22.400Z,98150.00
2022-08-05T18:36:04.241Z,98136.44
2022-08-05T18:38:37.165Z,98150.28
2022-08-05T18:41:57.225Z,98164.16
2022-08-05T18:43:53.077Z,98158.47
2022-08-05T18:46:20.681Z,98157.09
2022-08-05T18:48:51.884Z,98170.69
2022-08-05T18:52:04.970Z,98156.00
2022-08-05T18:54:25.398Z,98164.97
2022-08-05T18:56:52.229Z,98175.03
2022-08-05T18:59:43.651Z,98170.13
2022-08-05T19:02:11.317Z,98174.75
2022-08-05T19:05:01.639Z,98179.94
2022-08-05T19:07:45.871Z,98179.91
2022-08-05T19:10:14.762Z,98177.97
2022-08-05T19:12:41.672Z,98189.94
2022-08-05T19:15:45.065Z,98194.78
2022-08-05T19:18:09.239Z,98183.66
2022-08-05T19:20:41.841Z,98187.16
2022-08-05T19:24:04.140Z,98188.22
2022-08-05T19:26:03.324Z,98196.94
2022-08-05T19:28:34.734Z,98188.78
2022-08-05T19:31:01.480Z,98197.22
2022-08-05T19:33:36.189Z,98195.31
2022-08-05T19:36:06.361Z,98197.22
2022-08-05T19:38:35.866Z,98189.06
2022-08-05T19:41:07.142Z,98194.75
2022-08-05T19:44:06.283Z,98199.63
2022-08-05T19:46:30.668Z,98198.03
2022-08-05T19:49:01.064Z,98192.34
2022-08-05T19:52:05.666Z,98209.69
2022-08-05T19:54:27.045Z,98196.06
2022-08-05T19:56:59.177Z,98203.09
2022-08-05T19:59:55.411Z,98196.03
2022-08-05T20:02:17.613Z,98206.50
2022-08-05T20:04:46.167Z,98205.13
2022-08-05T20:07:15.689Z,98218.16
2022-08-05T20:10:04.858Z,98220.56
2022-08-05T20:12:40.007Z,98226.72
2022-08-05T20:15:15.866Z,98228.06
2022-08-05T20:18:10.520Z,98241.59
2022-08-05T20:20:51.047Z,98239.16
2022-08-05T20:23:17.607Z,98241.34
2022-08-05T20:25:52.214Z,98244.81
2022-08-05T20:28:19.176Z,98247.16
2022-08-05T20:30:48.871Z,98250.47
2022-08-05T20:33:16.672Z,98256.63
2022-08-05T20:35:45.663Z,98231.47
2022-08-05T20:38:20.215Z,98261.31
2022-08-05T20:40:56.838Z,98252.56
2022-08-05T20:43:57.528Z,98267.63
2022-08-05T20:46:18.464Z,98251.78
2022-08-05T20:48:51.770Z,98258.03
2022-08-05T20:51:21.966Z,98252.22
2022-08-05T20:56:42.503Z,98241.75
2022-08-05T21:02:26.894Z,98265.38
2022-08-05T21:04:56.292Z,98269.91
2022-08-05T21:07:23.987Z,98294.22
2022-08-05T21:09:53.786Z,98279.69
2022-08-05T21:12:32.960Z,98290.06
2022-08-05T21:14:59.658Z,98273.88
2022-08-05T21:17:27.063Z,98295.56
2022-08-05T21:19:57.600Z,98291.97
2022-08-05T21:22:26.307Z,98289.44
2022-08-05T21:24:54.496Z,98297.00
2022-08-05T21:27:25.547Z,98311.69
2022-08-05T21:29:57.527Z,98298.88
2022-08-05T21:32:26.705Z,98297.69
2022-08-05T21:35:17.861Z,98306.19
2022-08-05T21:37:47.141Z,98302.84
2022-08-05T21:40:14.409Z,98294.16
2022-08-05T21:42:44.788Z,98316.47
2022-08-05T21:45:13.659Z,98318.44
2022-08-05T21:47:58.227Z,98295.81
2022-08-05T21:50:26.466Z,98277.53
2022-08-05T21:52:59.025Z,98294.69
2022-08-05T21:56:01.217Z,98300.09
2022-08-05T21:58:19.494Z,98291.88
2022-08-05T22:00:51.330Z,98289.13
2022-08-05T22:03:18.548Z,98317.97
2022-08-05T22:06:06.346Z,98312.31
2022-08-05T22:08:35.067Z,98310.34
2022-08-05T22:11:01.737Z,98313.56
2022-08-05T22:14:06.148Z,98296.75
2022-08-05T22:16:41.396Z,98302.59
2022-08-05T22:20:00.614Z,98311.44
2022-08-05T22:21:53.182Z,98313.09
2022-08-05T22:24:40.606Z,98307.00
2022-08-05T22:28:08.891Z,98314.16
2022-08-05T22:30:23.280Z,98325.31
2022-08-05T22:32:49.855Z,98312.78
2022-08-05T22:35:16.426Z,98304.47
2022-08-05T22:37:59.168Z,98307.75
2022-08-05T22:40:30.639Z,98322.44
2022-08-05T22:42:58.393Z,98328.09
2022-08-05T22:45:26.521Z,98331.97
2022-08-05T22:47:59.275Z,98334.91
2022-08-05T22:50:27.969Z,98322.84
2022-08-05T22:52:57.604Z,98327.28
2022-08-05T22:55:26.684Z,98328.56
2022-08-05T22:58:03.800Z,98317.94
2022-08-05T23:00:31.785Z,98314.25
2022-08-05T23:05:42.323Z,98327.03
2022-08-05T23:10:57.194Z,98333.78
2022-08-05T23:13:25.453Z,98335.72
2022-08-05T23:15:52.072Z,98327.03
2022-08-05T23:18:18.708Z,98345.59
2022-08-05T23:20:49.559Z,98324.84
2022-08-05T23:23:16.382Z,98333.84
2022-08-05T23:25:53.628Z,98329.44
2022-08-05T23:28:24.047Z,98341.13
2022-08-05T23:31:15.772Z,98343.53
2022-08-05T23:34:04.884Z,98348.53
2022-08-05T23:36:40.312Z,98336.22
2022-08-05T23:39:16.425Z,98348.22
2022-08-05T23:41:50.810Z,98326.97
2022-08-05T23:44:19.815Z,98348.53
2022-08-05T23:46:51.931Z,98340.41
2022-08-05T23:49:23.825Z,98336.81
2022-08-05T23:52:11.036Z,98347.38
2022-08-05T23:54:38.686Z,98344.63
2022-08-05T23:57:07.053Z,98331.81
